Terminal Aerodrome Forecast
Issued by NWS

Home | Current Version | Previous Version | Text Only | Print | Product List | Glossary On
Versions: 1 2 3 4 5 6 7 8 9 10 11 12 13 14 15 16 17 18
880
FTUS42 KTBW 181303 AAA
TAFPGD
TAF AMD
KPGD 181303Z 1813/1912 VRB03KT 3SM BR SCT003 SCT250
      TEMPO 1813/1814 1/2SM FG VV003
     FM181400 14005KT P6SM SCT020 SCT250
     FM181900 27006KT P6SM SCT050 SCT250
     FM190000 VRB03KT P6SM FEW050 SCT250
     FM190600 VRB03KT 3SM BR BKN010=

USA.gov is the U.S. government's official web portal to all federal, state and local government web resources and services.